createdAt,value
2018-03-04T00:00:26.616Z,19.75
2018-03-04T00:02:53.457Z,17.55
2018-03-04T00:05:20.042Z,19.48
2018-03-04T00:07:46.663Z,20.08
2018-03-04T00:10:13.252Z,18.90
2018-03-04T00:12:39.862Z,15.02
2018-03-04T00:15:06.446Z,16.50
2018-03-04T00:17:33.104Z,22.05
2018-03-04T00:19:59.702Z,18.50
2018-03-04T00:22:32.323Z,22.10
2018-03-04T00:24:58.924Z,17.92
2018-03-04T00:27:25.517Z,16.67
2018-03-04T00:29:52.109Z,17.45
2018-03-04T00:32:18.701Z,21.10
2018-03-04T00:34:45.314Z,20.12
2018-03-04T00:37:11.909Z,19.80
2018-03-04T00:39:38.513Z,21.85
2018-03-04T00:42:05.115Z,18.33
2018-03-04T00:44:31.748Z,19.98
2018-03-04T00:46:58.345Z,19.35
2018-03-04T00:49:24.932Z,17.60
2018-03-04T00:51:51.528Z,20.98
2018-03-04T00:54:18.197Z,19.60
2018-03-04T00:56:44.800Z,22.70
2018-03-04T00:59:11.390Z,18.85
2018-03-04T01:01:37.973Z,19.85
2018-03-04T01:04:04.589Z,19.92
2018-03-04T01:06:31.913Z,18.00
2018-03-04T01:08:58.497Z,18.92
2018-03-04T01:11:25.084Z,19.85
2018-03-04T01:13:51.702Z,20.45
2018-03-04T01:16:18.291Z,22.95
2018-03-04T01:18:44.889Z,21.23
2018-03-04T01:21:11.515Z,18.73
2018-03-04T01:23:38.118Z,20.67
2018-03-04T01:26:04.731Z,21.77
2018-03-04T01:28:31.322Z,20.02
2018-03-04T01:30:57.940Z,21.30
2018-03-04T01:33:24.533Z,22.25
2018-03-04T01:35:51.140Z,21.45
2018-03-04T01:38:17.735Z,18.92
2018-03-04T01:40:44.324Z,21.70
2018-03-04T01:43:10.922Z,23.55
2018-03-04T01:45:37.522Z,23.62
2018-03-04T01:48:04.132Z,18.58
2018-03-04T01:50:30.737Z,23.75
2018-03-04T01:52:57.327Z,22.00
2018-03-04T01:55:23.926Z,20.00
2018-03-04T01:57:50.530Z,17.15
2018-03-04T02:00:17.126Z,16.95
2018-03-04T02:02:43.704Z,18.90
2018-03-04T02:05:10.345Z,20.80
2018-03-04T02:07:36.932Z,18.12
2018-03-04T02:10:03.535Z,19.02
2018-03-04T02:12:30.137Z,23.42
2018-03-04T02:14:57.314Z,21.05
2018-03-04T02:17:23.914Z,23.75
2018-03-04T02:19:50.576Z,22.05
2018-03-04T02:22:17.207Z,25.25
2018-03-04T02:24:43.822Z,18.85
2018-03-04T02:27:10.407Z,23.95
2018-03-04T02:29:37.005Z,25.17
2018-03-04T02:32:03.601Z,22.42
2018-03-04T02:34:30.191Z,23.38
2018-03-04T02:36:56.795Z,26.85
2018-03-04T02:39:23.394Z,26.08
2018-03-04T02:41:49.999Z,22.87
2018-03-04T02:44:16.594Z,32.35
2018-03-04T02:46:43.178Z,21.50
2018-03-04T02:49:09.760Z,23.02
2018-03-04T02:51:36.917Z,19.02
2018-03-04T02:54:03.591Z,26.50
2018-03-04T02:56:30.239Z,21.20
2018-03-04T02:58:56.855Z,22.75
2018-03-04T03:01:23.454Z,22.05
2018-03-04T03:03:50.045Z,26.30
2018-03-04T03:06:16.638Z,18.77
2018-03-04T03:08:43.300Z,23.92
2018-03-04T03:11:09.887Z,19.75
2018-03-04T03:13:36.480Z,21.17
2018-03-04T03:16:03.112Z,21.62
2018-03-04T03:18:29.695Z,25.33
2018-03-04T03:20:56.917Z,18.98
2018-03-04T03:23:23.532Z,21.17
2018-03-04T03:25:50.112Z,24.52
2018-03-04T03:28:16.820Z,21.45
2018-03-04T03:30:43.408Z,22.48
2018-03-04T03:33:10.093Z,28.02
2018-03-04T03:35:36.679Z,25.60
2018-03-04T03:38:03.263Z,22.73
2018-03-04T03:40:29.898Z,21.70
2018-03-04T03:42:56.489Z,21.25
2018-03-04T03:45:23.076Z,20.88
2018-03-04T03:47:49.660Z,19.60
2018-03-04T03:50:16.771Z,19.17
2018-03-04T03:52:43.377Z,22.37
2018-03-04T03:55:10.032Z,21.10
2018-03-04T03:57:36.612Z,19.30
2018-03-04T04:00:03.205Z,20.20
2018-03-04T04:02:29.797Z,24.25
2018-03-04T04:04:57.056Z,18.45
2018-03-04T04:07:23.659Z,18.77
2018-03-04T04:09:50.262Z,24.80
2018-03-04T04:12:16.862Z,22.08
2018-03-04T04:14:43.520Z,17.12
2018-03-04T04:17:10.108Z,19.55
2018-03-04T04:19:37.315Z,20.33
2018-03-04T04:22:03.945Z,21.45
2018-03-04T04:24:30.555Z,22.35
2018-03-04T04:26:57.142Z,20.88
2018-03-04T04:29:23.732Z,20.15
2018-03-04T04:31:50.375Z,23.80
2018-03-04T04:34:16.930Z,21.48
2018-03-04T04:36:43.547Z,23.02
2018-03-04T04:39:10.128Z,22.15
2018-03-04T04:41:37.720Z,19.00
2018-03-04T04:44:04.393Z,20.70
2018-03-04T04:46:30.995Z,21.20
2018-03-04T04:48:57.670Z,19.55
2018-03-04T04:51:24.270Z,18.48
2018-03-04T04:53:50.872Z,19.00
2018-03-04T04:56:17.443Z,22.10
2018-03-04T04:58:44.045Z,21.75
2018-03-04T05:01:10.716Z,22.42
2018-03-04T05:03:38.068Z,24.50
2018-03-04T05:06:04.666Z,18.80
2018-03-04T05:08:31.254Z,21.92
2018-03-04T05:10:57.900Z,19.48
2018-03-04T05:13:24.551Z,19.30
2018-03-04T05:15:51.101Z,19.37
2018-03-04T05:18:17.680Z,20.80
2018-03-04T05:20:44.263Z,19.85
2018-03-04T05:23:10.860Z,18.58
2018-03-04T05:25:38.029Z,22.95
2018-03-04T05:28:04.621Z,20.65
2018-03-04T05:30:31.207Z,21.17
2018-03-04T05:32:57.841Z,18.67
2018-03-04T05:35:24.482Z,20.58
2018-03-04T05:37:51.103Z,17.92
2018-03-04T05:40:17.697Z,17.85
2018-03-04T05:42:44.294Z,15.15
2018-03-04T05:45:10.900Z,19.45
2018-03-04T05:47:38.168Z,21.75
2018-03-04T05:50:04.748Z,15.80
2018-03-04T05:52:31.928Z,19.52
2018-03-04T05:54:58.526Z,21.67
2018-03-04T05:57:25.107Z,19.12
2018-03-04T05:59:51.710Z,18.25
2018-03-04T06:02:18.299Z,18.65
2018-03-04T06:04:44.927Z,18.95
2018-03-04T06:07:11.507Z,18.85
2018-03-04T06:09:38.115Z,15.65
2018-03-04T06:12:04.709Z,20.45
2018-03-04T06:14:31.381Z,19.77
2018-03-04T06:16:57.983Z,17.02
2018-03-04T06:19:24.666Z,20.20
2018-03-04T06:21:51.279Z,18.85
2018-03-04T06:24:17.923Z,19.05
2018-03-04T06:26:44.565Z,17.87
2018-03-04T06:29:11.153Z,20.70
2018-03-04T06:31:37.744Z,19.42
2018-03-04T06:34:04.354Z,17.10
2018-03-04T06:36:31.627Z,18.00
2018-03-04T06:38:58.252Z,16.35
2018-03-04T06:41:24.859Z,17.25
2018-03-04T06:43:51.456Z,20.20
2018-03-04T06:46:18.036Z,21.85
2018-03-04T06:48:44.701Z,20.20
2018-03-04T06:51:11.662Z,17.75
2018-03-04T06:53:38.287Z,16.17
2018-03-04T06:56:04.889Z,16.73
2018-03-04T06:58:31.475Z,20.42
2018-03-04T07:00:58.083Z,21.08
2018-03-04T07:03:24.667Z,18.05
2018-03-04T07:05:51.269Z,16.87
2018-03-04T07:08:17.866Z,16.70
2018-03-04T07:10:44.528Z,17.12
2018-03-04T07:13:11.133Z,17.90
2018-03-04T07:15:38.537Z,17.30
2018-03-04T07:18:05.162Z,17.58
2018-03-04T07:20:31.747Z,16.35
2018-03-04T07:22:58.331Z,19.67
2018-03-04T07:25:24.916Z,17.98
2018-03-04T07:27:51.600Z,16.15
2018-03-04T07:30:18.723Z,18.33
2018-03-04T07:32:45.402Z,20.35
2018-03-04T07:35:12.003Z,19.48
2018-03-04T07:37:38.587Z,17.45
2018-03-04T07:40:05.182Z,16.65
2018-03-04T07:42:31.778Z,15.85
2018-03-04T07:44:58.363Z,16.27
2018-03-04T07:47:24.995Z,18.65
2018-03-04T07:49:51.599Z,12.98
2018-03-04T07:52:18.183Z,19.60
2018-03-04T07:54:44.813Z,18.15
2018-03-04T07:57:11.458Z,17.80
2018-03-04T07:59:38.049Z,18.55
2018-03-04T08:02:04.723Z,17.12
2018-03-04T08:04:31.341Z,19.25
2018-03-04T08:06:57.998Z,18.23
2018-03-04T08:09:26.700Z,18.10
2018-03-04T08:11:54.087Z,15.50
2018-03-04T08:14:20.694Z,15.13
2018-03-04T08:16:47.282Z,17.45
2018-03-04T08:19:13.868Z,17.35
2018-03-04T08:21:40.486Z,16.05
2018-03-04T08:24:07.079Z,14.75
2018-03-04T08:26:39.688Z,19.25
2018-03-04T08:29:06.294Z,20.42
2018-03-04T08:31:32.877Z,17.83
2018-03-04T08:33:59.483Z,18.12
2018-03-04T08:36:26.094Z,16.85
2018-03-04T08:38:52.659Z,15.27
2018-03-04T08:41:19.258Z,19.55
2018-03-04T08:43:45.843Z,15.20
2018-03-04T08:46:12.424Z,17.65
2018-03-04T08:48:39.208Z,15.45
2018-03-04T08:51:05.786Z,16.90
2018-03-04T08:53:32.480Z,13.45
2018-03-04T08:55:59.130Z,14.90
2018-03-04T08:58:25.719Z,18.02
2018-03-04T09:00:52.398Z,16.77
2018-03-04T09:03:18.999Z,14.55
2018-03-04T09:05:45.660Z,16.90
2018-03-04T09:08:13.018Z,16.35
2018-03-04T09:10:39.629Z,15.82
2018-03-04T09:13:06.303Z,16.67
2018-03-04T09:15:32.915Z,14.43
2018-03-04T09:17:59.490Z,14.63
2018-03-04T09:20:26.090Z,16.45
2018-03-04T09:22:52.700Z,15.30
2018-03-04T09:25:19.368Z,15.48
2018-03-04T09:27:45.958Z,17.20
2018-03-04T09:30:12.548Z,14.23
2018-03-04T09:32:39.210Z,14.15
2018-03-04T09:35:05.815Z,15.75
2018-03-04T09:37:32.452Z,16.45
2018-03-04T09:39:59.032Z,13.95
2018-03-04T09:42:25.648Z,13.95
2018-03-04T09:44:52.261Z,16.00
2018-03-04T09:47:18.872Z,16.25
2018-03-04T09:49:45.471Z,14.32
2018-03-04T09:52:12.070Z,16.10
2018-03-04T09:54:38.694Z,16.20
2018-03-04T09:57:05.351Z,16.27
2018-03-04T09:59:32.014Z,15.05
2018-03-04T10:01:58.609Z,14.73
2018-03-04T10:04:25.215Z,14.00
2018-03-04T10:06:51.801Z,12.23
2018-03-04T10:09:18.402Z,15.40
2018-03-04T10:11:44.998Z,12.77
2018-03-04T10:14:11.701Z,11.57
2018-03-04T10:16:38.344Z,13.25
2018-03-04T10:19:05.004Z,11.50
2018-03-04T10:21:31.634Z,16.15
2018-03-04T10:23:59.263Z,14.80
2018-03-04T10:26:25.847Z,14.75
2018-03-04T10:28:52.450Z,10.75
2018-03-04T10:31:19.049Z,11.50
2018-03-04T10:33:45.654Z,12.23
2018-03-04T10:36:12.272Z,14.23
2018-03-04T10:38:38.906Z,16.25
2018-03-04T10:41:05.509Z,15.73
2018-03-04T10:43:32.097Z,12.52
2018-03-04T10:45:58.699Z,14.73
2018-03-04T10:48:25.326Z,12.93
2018-03-04T10:50:51.907Z,14.13
2018-03-04T10:53:18.507Z,12.43
2018-03-04T10:55:45.101Z,9.30
2018-03-04T10:58:11.688Z,11.93
2018-03-04T11:00:44.041Z,12.57
2018-03-04T11:03:10.625Z,14.27
2018-03-04T11:05:37.235Z,10.90
2018-03-04T11:08:03.816Z,12.55
2018-03-04T11:10:30.419Z,12.90
2018-03-04T11:12:57.026Z,10.10
2018-03-04T11:15:23.634Z,12.30
2018-03-04T11:17:50.249Z,8.45
2018-03-04T11:20:17.074Z,10.43
2018-03-04T11:22:43.660Z,9.55
2018-03-04T11:25:10.326Z,10.85
2018-03-04T11:27:36.892Z,10.82
2018-03-04T11:30:03.528Z,10.88
2018-03-04T11:32:30.117Z,9.55
2018-03-04T11:34:56.748Z,11.52
2018-03-04T11:37:23.395Z,11.35
2018-03-04T11:39:49.971Z,9.50
2018-03-04T11:42:17.179Z,13.25
2018-03-04T11:44:43.814Z,10.77
2018-03-04T11:47:11.081Z,12.60
2018-03-04T11:49:37.663Z,9.95
2018-03-04T11:52:04.307Z,10.32
2018-03-04T11:54:30.902Z,10.55
2018-03-04T11:56:58.125Z,10.07
2018-03-04T11:59:24.861Z,9.70
2018-03-04T12:01:51.489Z,10.38
2018-03-04T12:04:18.068Z,9.77
2018-03-04T12:06:44.795Z,8.25
2018-03-04T12:09:11.444Z,8.70
2018-03-04T12:11:38.107Z,7.60
2018-03-04T12:14:04.732Z,9.10
2018-03-04T12:16:31.419Z,12.40
2018-03-04T12:18:58.043Z,8.32
2018-03-04T12:21:24.623Z,8.90
2018-03-04T12:23:52.106Z,7.78
2018-03-04T12:26:18.688Z,9.00
2018-03-04T12:28:45.318Z,8.02
2018-03-04T12:31:11.918Z,9.65
2018-03-04T12:33:38.500Z,8.80
2018-03-04T12:36:05.120Z,10.52
2018-03-04T12:38:31.703Z,9.55
2018-03-04T12:40:58.320Z,7.90
2018-03-04T12:43:24.929Z,9.57
2018-03-04T12:45:52.050Z,6.87
2018-03-04T12:48:18.751Z,8.07
2018-03-04T12:50:45.425Z,7.72
2018-03-04T12:53:12.414Z,8.05
2018-03-04T12:55:39.113Z,8.05
2018-03-04T12:58:05.764Z,7.68
2018-03-04T13:00:32.468Z,6.72
2018-03-04T13:02:59.389Z,10.43
2018-03-04T13:05:26.038Z,6.53
2018-03-04T13:07:52.743Z,7.93
2018-03-04T13:10:19.349Z,7.85
2018-03-04T13:12:45.943Z,9.25
2018-03-04T13:15:12.542Z,6.57
2018-03-04T13:17:39.197Z,7.82
2018-03-04T13:20:05.818Z,9.70
2018-03-04T13:22:32.396Z,7.95
2018-03-04T13:24:58.984Z,8.02
2018-03-04T13:27:25.618Z,5.97
2018-03-04T13:29:52.216Z,7.53
2018-03-04T13:32:18.810Z,9.63
2018-03-04T13:34:45.443Z,8.90
2018-03-04T13:37:12.954Z,6.43
2018-03-04T13:39:39.611Z,8.23
2018-03-04T13:42:06.225Z,5.70
2018-03-04T13:44:32.826Z,6.82
2018-03-04T13:46:59.400Z,7.53
2018-03-04T13:49:26.073Z,7.70
2018-03-04T13:51:52.665Z,7.72
2018-03-04T13:54:19.338Z,6.05
2018-03-04T13:56:45.928Z,7.05
2018-03-04T13:59:12.503Z,7.93
2018-03-04T14:01:39.136Z,6.70
2018-03-04T14:04:05.772Z,6.45
2018-03-04T14:06:32.370Z,5.90
2018-03-04T14:08:58.943Z,5.82
2018-03-04T14:11:25.563Z,6.12
2018-03-04T14:13:52.128Z,8.02
2018-03-04T14:16:18.709Z,6.47
2018-03-04T14:18:45.287Z,6.05
2018-03-04T14:21:11.870Z,7.55
2018-03-04T14:23:38.507Z,4.80
2018-03-04T14:26:05.222Z,5.20
2018-03-04T14:28:31.772Z,7.72
2018-03-04T14:30:58.378Z,6.35
2018-03-04T14:33:24.964Z,5.78
2018-03-04T14:35:51.713Z,7.05
2018-03-04T14:38:18.675Z,8.38
2018-03-04T14:40:45.497Z,6.72
2018-03-04T14:43:12.318Z,6.35
2018-03-04T14:45:39.105Z,4.95
2018-03-04T14:48:05.911Z,6.62
2018-03-04T14:50:32.625Z,6.82
2018-03-04T14:52:59.347Z,5.45
2018-03-04T14:55:26.019Z,5.75
2018-03-04T14:57:54.450Z,5.65
2018-03-04T15:00:21.092Z,4.20
2018-03-04T15:02:47.728Z,4.55
2018-03-04T15:05:14.366Z,5.32
2018-03-04T15:07:41.522Z,6.68
2018-03-04T15:10:08.201Z,5.87
2018-03-04T15:12:34.965Z,5.50
2018-03-04T15:15:01.534Z,5.10
2018-03-04T15:17:28.162Z,6.40
2018-03-04T15:19:54.776Z,5.87
2018-03-04T15:22:21.692Z,5.60
2018-03-04T15:24:48.530Z,5.78
2018-03-04T15:27:15.149Z,6.47
2018-03-04T15:29:41.800Z,5.15
2018-03-04T15:32:08.368Z,5.32
2018-03-04T15:34:34.956Z,7.07
2018-03-04T15:37:01.640Z,5.12
2018-03-04T15:39:28.216Z,4.60
2018-03-04T15:41:54.811Z,4.97
2018-03-04T15:44:21.402Z,5.87
2018-03-04T15:46:48.092Z,5.12
2018-03-04T15:49:15.706Z,4.87
2018-03-04T15:51:42.405Z,5.57
2018-03-04T15:54:09.230Z,5.30
2018-03-04T15:56:37.406Z,4.90
2018-03-04T15:59:03.980Z,4.80
2018-03-04T16:01:30.592Z,5.87
2018-03-04T16:03:57.175Z,3.70
2018-03-04T16:06:23.763Z,5.65
2018-03-04T16:08:50.396Z,4.22
2018-03-04T16:11:17.015Z,4.93
2018-03-04T16:13:43.747Z,4.62
2018-03-04T16:16:10.506Z,4.78
2018-03-04T16:18:37.716Z,5.32
2018-03-04T16:21:04.375Z,6.10
2018-03-04T16:23:30.982Z,5.87
2018-03-04T16:25:58.261Z,7.12
2018-03-04T16:28:24.847Z,4.75
2018-03-04T16:30:51.454Z,4.00
2018-03-04T16:33:18.029Z,3.62
2018-03-04T16:35:44.641Z,5.40
2018-03-04T16:38:11.230Z,4.35
2018-03-04T16:40:39.431Z,4.47
2018-03-04T16:43:06.026Z,5.03
2018-03-04T16:45:32.620Z,4.68
2018-03-04T16:47:59.233Z,4.85
2018-03-04T16:50:25.861Z,5.97
2018-03-04T16:52:52.437Z,4.87
2018-03-04T16:55:19.033Z,6.20
2018-03-04T16:57:45.783Z,4.62
2018-03-04T17:00:12.365Z,4.28
2018-03-04T17:02:38.967Z,4.60
2018-03-04T17:05:05.571Z,4.85
2018-03-04T17:07:32.152Z,6.32
2018-03-04T17:09:58.800Z,5.37
2018-03-04T17:12:25.373Z,4.07
2018-03-04T17:14:51.970Z,5.22
2018-03-04T17:17:18.552Z,6.95
2018-03-04T17:19:45.288Z,4.62
2018-03-04T17:22:11.867Z,5.57
2018-03-04T17:24:38.464Z,5.07
2018-03-04T17:27:05.043Z,4.65
2018-03-04T17:29:31.638Z,6.40
2018-03-04T17:31:58.230Z,7.10
2018-03-04T17:34:24.812Z,6.30
2018-03-04T17:36:51.400Z,6.87
2018-03-04T17:39:17.972Z,5.72
2018-03-04T17:41:44.566Z,5.55
2018-03-04T17:44:11.153Z,10.70
2018-03-04T17:46:37.754Z,11.25
2018-03-04T17:49:04.353Z,10.48
2018-03-04T17:51:31.068Z,11.00
2018-03-04T17:53:57.658Z,11.35
2018-03-04T17:56:24.346Z,9.18
2018-03-04T17:58:50.971Z,9.88
2018-03-04T18:01:17.553Z,8.90
2018-03-04T18:03:44.252Z,7.90
2018-03-04T18:06:10.831Z,7.95
2018-03-04T18:08:37.420Z,8.10
2018-03-04T18:11:04.008Z,8.82
2018-03-04T18:13:30.596Z,7.57
2018-03-04T18:15:57.229Z,8.32
2018-03-04T18:18:23.808Z,5.68
2018-03-04T18:20:50.406Z,7.75
2018-03-04T18:23:17.948Z,9.02
2018-03-04T18:25:44.818Z,7.75
2018-03-04T18:28:11.413Z,8.23
2018-03-04T18:30:38.003Z,9.18
2018-03-04T18:33:04.588Z,7.10
2018-03-04T18:35:32.115Z,9.75
2018-03-04T18:37:58.792Z,7.90
2018-03-04T18:40:25.394Z,7.75
2018-03-04T18:42:51.977Z,8.60
2018-03-04T18:45:18.596Z,6.53
2018-03-04T18:47:45.250Z,9.30
2018-03-04T18:50:11.872Z,10.27
2018-03-04T18:52:38.463Z,7.25
2018-03-04T18:55:05.057Z,7.65
2018-03-04T18:57:31.667Z,7.78
2018-03-04T18:59:58.258Z,6.95
2018-03-04T19:02:24.848Z,10.48
2018-03-04T19:04:51.439Z,7.95
2018-03-04T19:07:18.134Z,8.10
2018-03-04T19:09:44.732Z,9.35
2018-03-04T19:12:11.316Z,7.25
2018-03-04T19:14:37.893Z,6.93
2018-03-04T19:17:04.526Z,7.05
2018-03-04T19:19:31.626Z,7.45
2018-03-04T19:21:58.684Z,9.00
2018-03-04T19:24:25.243Z,7.85
2018-03-04T19:26:51.841Z,8.55
2018-03-04T19:29:18.492Z,8.95
2018-03-04T19:31:45.072Z,6.07
2018-03-04T19:34:11.759Z,6.00
2018-03-04T19:36:38.362Z,6.90
2018-03-04T19:39:04.943Z,8.68
2018-03-04T19:41:31.894Z,6.72
2018-03-04T19:43:58.475Z,6.20
2018-03-04T19:46:25.142Z,6.85
2018-03-04T19:48:51.746Z,7.60
2018-03-04T19:51:18.414Z,7.53
2018-03-04T19:53:44.992Z,6.95
2018-03-04T19:56:12.193Z,9.43
2018-03-04T19:58:39.208Z,6.87
2018-03-04T20:01:05.890Z,6.03
2018-03-04T20:03:32.518Z,7.03
2018-03-04T20:05:59.132Z,6.18
2018-03-04T20:08:25.727Z,5.78
2018-03-04T20:10:52.316Z,6.28
2018-03-04T20:13:18.944Z,5.40
2018-03-04T20:15:45.530Z,6.85
2018-03-04T20:18:12.119Z,5.65
2018-03-04T20:20:38.837Z,6.75
2018-03-04T20:23:05.410Z,7.72
2018-03-04T20:25:32.476Z,6.53
2018-03-04T20:27:59.033Z,5.30
2018-03-04T20:30:25.626Z,4.55
2018-03-04T20:32:52.208Z,6.45
2018-03-04T20:35:18.795Z,5.20
2018-03-04T20:37:45.377Z,6.97
2018-03-04T20:40:12.608Z,6.15
2018-03-04T20:42:40.842Z,4.70
2018-03-04T20:45:07.430Z,4.28
2018-03-04T20:47:34.109Z,6.70
2018-03-04T20:50:01.777Z,5.62
2018-03-04T20:52:28.360Z,6.50
2018-03-04T20:54:54.955Z,4.07
2018-03-04T20:57:21.542Z,4.85
2018-03-04T20:59:48.120Z,4.65
2018-03-04T21:02:15.988Z,5.05
2018-03-04T21:04:42.578Z,4.18
2018-03-04T21:07:09.264Z,6.25
2018-03-04T21:09:35.854Z,4.05
2018-03-04T21:12:02.440Z,3.47
2018-03-04T21:14:29.032Z,5.60
2018-03-04T21:16:56.349Z,6.90
2018-03-04T21:19:22.952Z,3.97
2018-03-04T21:21:49.599Z,5.12
2018-03-04T21:24:16.227Z,5.65
2018-03-04T21:26:42.778Z,5.45
2018-03-04T21:29:09.406Z,4.45
2018-03-04T21:31:36.413Z,3.72
2018-03-04T21:34:03.014Z,6.18
2018-03-04T21:36:29.614Z,5.62
2018-03-04T21:38:56.205Z,5.32
2018-03-04T21:41:22.785Z,4.30
2018-03-04T21:43:49.381Z,5.03
2018-03-04T21:46:15.970Z,4.55
2018-03-04T21:48:42.600Z,5.87
2018-03-04T21:51:09.172Z,3.87
2018-03-04T21:53:37.543Z,3.62
2018-03-04T21:56:04.140Z,5.03
2018-03-04T21:58:30.724Z,6.00
2018-03-04T22:00:58.237Z,4.55
2018-03-04T22:03:24.826Z,3.80
2018-03-04T22:05:51.414Z,3.60
2018-03-04T22:08:18.050Z,3.30
2018-03-04T22:10:44.636Z,3.17
2018-03-04T22:13:11.241Z,4.82
2018-03-04T22:15:37.832Z,3.58
2018-03-04T22:18:04.436Z,3.55
2018-03-04T22:20:31.016Z,5.43
2018-03-04T22:22:57.610Z,4.82
2018-03-04T22:25:24.206Z,4.85
2018-03-04T22:27:50.798Z,3.85
2018-03-04T22:30:18.122Z,3.00
2018-03-04T22:32:44.712Z,4.20
2018-03-04T22:35:11.288Z,4.22
2018-03-04T22:37:37.887Z,3.60
2018-03-04T22:40:04.485Z,6.05
2018-03-04T22:42:31.162Z,4.00
2018-03-04T22:44:57.804Z,4.80
2018-03-04T22:47:24.383Z,4.40
2018-03-04T22:49:50.972Z,3.92
2018-03-04T22:52:17.659Z,3.70
2018-03-04T22:54:44.263Z,3.95
2018-03-04T22:57:10.868Z,4.43
2018-03-04T22:59:37.485Z,4.25
2018-03-04T23:02:04.074Z,3.40
2018-03-04T23:04:30.675Z,4.10
2018-03-04T23:06:57.256Z,2.90
2018-03-04T23:09:23.863Z,2.72
2018-03-04T23:11:50.440Z,3.37
2018-03-04T23:14:17.148Z,3.72
2018-03-04T23:16:44.631Z,3.67
2018-03-04T23:19:11.238Z,4.60
2018-03-04T23:21:37.818Z,3.40
2018-03-04T23:24:04.492Z,2.65
2018-03-04T23:26:31.121Z,3.00
2018-03-04T23:28:57.704Z,3.87
2018-03-04T23:31:24.631Z,4.70
2018-03-04T23:33:51.184Z,3.92
2018-03-04T23:36:17.774Z,4.55
2018-03-04T23:38:44.773Z,2.87
2018-03-04T23:41:11.370Z,3.25
2018-03-04T23:43:37.939Z,3.78
2018-03-04T23:46:04.537Z,2.95
2018-03-04T23:48:31.128Z,3.78
2018-03-04T23:50:57.722Z,3.00
2018-03-04T23:53:24.295Z,3.12
2018-03-04T23:55:51.474Z,3.35
2018-03-04T23:58:18.065Z,2.78
